sensor_id;sensor_type;location;lat;lon;timestamp;P1;durP1;ratioP1;P2;durP2;ratioP2
47589;SDS011;33316;52.298;9.056;2023-07-31T00:00:19;2.22;;;0.60;;
47589;SDS011;33316;52.298;9.056;2023-07-31T00:02:45;0.60;;;0.40;;
47589;SDS011;33316;52.298;9.056;2023-07-31T00:05:12;1.13;;;0.60;;
47589;SDS011;33316;52.298;9.056;2023-07-31T00:07:39;0.73;;;0.50;;
47589;SDS011;33316;52.298;9.056;2023-07-31T00:10:06;1.83;;;0.45;;
47589;SDS011;33316;52.298;9.056;2023-07-31T00:12:33;1.85;;;0.40;;
47589;SDS011;33316;52.298;9.056;2023-07-31T00:15:02;0.80;;;0.32;;
47589;SDS011;33316;52.298;9.056;2023-07-31T00:17:29;0.57;;;0.20;;
47589;SDS011;33316;52.298;9.056;2023-07-31T00:19:56;1.65;;;0.40;;
47589;SDS011;33316;52.298;9.056;2023-07-31T00:22:23;0.73;;;0.32;;
47589;SDS011;33316;52.298;9.056;2023-07-31T00:24:50;0.95;;;0.30;;
47589;SDS011;33316;52.298;9.056;2023-07-31T00:27:17;0.95;;;0.40;;
47589;SDS011;33316;52.298;9.056;2023-07-31T00:29:44;0.70;;;0.40;;
47589;SDS011;33316;52.298;9.056;2023-07-31T00:32:12;1.60;;;0.20;;
47589;SDS011;33316;52.298;9.056;2023-07-31T00:34:39;1.52;;;0.38;;
47589;SDS011;33316;52.298;9.056;2023-07-31T00:37:06;0.65;;;0.20;;
47589;SDS011;33316;52.298;9.056;2023-07-31T00:39:33;0.57;;;0.38;;
47589;SDS011;33316;52.298;9.056;2023-07-31T00:42:00;0.65;;;0.30;;
47589;SDS011;33316;52.298;9.056;2023-07-31T00:44:28;0.40;;;0.20;;
47589;SDS011;33316;52.298;9.056;2023-07-31T00:46:54;0.57;;;0.30;;
47589;SDS011;33316;52.298;9.056;2023-07-31T00:49:24;0.80;;;0.20;;
47589;SDS011;33316;52.298;9.056;2023-07-31T00:51:52;0.35;;;0.20;;
47589;SDS011;33316;52.298;9.056;2023-07-31T00:54:24;0.82;;;0.20;;
47589;SDS011;33316;52.298;9.056;2023-07-31T00:56:51;1.15;;;0.30;;
47589;SDS011;33316;52.298;9.056;2023-07-31T00:59:21;0.70;;;0.20;;
47589;SDS011;33316;52.298;9.056;2023-07-31T01:01:47;0.17;;;0.10;;
47589;SDS011;33316;52.298;9.056;2023-07-31T01:04:15;1.48;;;0.32;;
47589;SDS011;33316;52.298;9.056;2023-07-31T01:06:47;0.65;;;0.20;;
47589;SDS011;33316;52.298;9.056;2023-07-31T01:09:19;2.15;;;0.28;;
47589;SDS011;33316;52.298;9.056;2023-07-31T01:11:56;0.20;;;0.10;;
47589;SDS011;33316;52.298;9.056;2023-07-31T01:14:27;0.40;;;0.17;;
47589;SDS011;33316;52.298;9.056;2023-07-31T01:16:54;0.57;;;0.20;;
47589;SDS011;33316;52.298;9.056;2023-07-31T01:19:23;1.65;;;0.20;;
47589;SDS011;33316;52.298;9.056;2023-07-31T01:22:04;0.82;;;0.28;;
47589;SDS011;33316;52.298;9.056;2023-07-31T01:24:59;0.95;;;0.20;;
47589;SDS011;33316;52.298;9.056;2023-07-31T01:27:37;0.80;;;0.30;;
47589;SDS011;33316;52.298;9.056;2023-07-31T01:30:11;0.70;;;0.20;;
47589;SDS011;33316;52.298;9.056;2023-07-31T01:32:42;0.55;;;0.20;;
47589;SDS011;33316;52.298;9.056;2023-07-31T01:35:12;0.65;;;0.20;;
47589;SDS011;33316;52.298;9.056;2023-07-31T01:37:39;0.32;;;0.20;;
47589;SDS011;33316;52.298;9.056;2023-07-31T01:40:06;1.27;;;0.28;;
47589;SDS011;33316;52.298;9.056;2023-07-31T01:42:35;0.55;;;0.20;;
47589;SDS011;33316;52.298;9.056;2023-07-31T01:45:02;0.60;;;0.17;;
47589;SDS011;33316;52.298;9.056;2023-07-31T01:47:29;0.60;;;0.30;;
47589;SDS011;33316;52.298;9.056;2023-07-31T01:49:56;0.30;;;0.10;;
47589;SDS011;33316;52.298;9.056;2023-07-31T01:52:23;0.20;;;0.10;;
47589;SDS011;33316;52.298;9.056;2023-07-31T01:54:50;0.50;;;0.30;;
47589;SDS011;33316;52.298;9.056;2023-07-31T01:57:19;0.38;;;0.20;;
47589;SDS011;33316;52.298;9.056;2023-07-31T01:59:47;1.13;;;0.20;;
47589;SDS011;33316;52.298;9.056;2023-07-31T02:02:14;0.47;;;0.20;;
47589;SDS011;33316;52.298;9.056;2023-07-31T02:04:41;0.20;;;0.20;;
47589;SDS011;33316;52.298;9.056;2023-07-31T02:07:08;0.40;;;0.20;;
47589;SDS011;33316;52.298;9.056;2023-07-31T02:09:35;0.20;;;0.20;;
47589;SDS011;33316;52.298;9.056;2023-07-31T02:12:02;0.60;;;0.30;;
47589;SDS011;33316;52.298;9.056;2023-07-31T02:14:29;0.47;;;0.20;;
47589;SDS011;33316;52.298;9.056;2023-07-31T02:16:57;0.30;;;0.30;;
47589;SDS011;33316;52.298;9.056;2023-07-31T02:19:24;0.95;;;0.20;;
47589;SDS011;33316;52.298;9.056;2023-07-31T02:21:51;0.22;;;0.20;;
47589;SDS011;33316;52.298;9.056;2023-07-31T02:24:18;0.47;;;0.28;;
47589;SDS011;33316;52.298;9.056;2023-07-31T02:26:45;0.50;;;0.30;;
47589;SDS011;33316;52.298;9.056;2023-07-31T02:29:12;0.82;;;0.30;;
47589;SDS011;33316;52.298;9.056;2023-07-31T02:31:38;0.40;;;0.30;;
47589;SDS011;33316;52.298;9.056;2023-07-31T02:34:07;1.10;;;0.30;;
47589;SDS011;33316;52.298;9.056;2023-07-31T02:36:33;0.30;;;0.20;;
47589;SDS011;33316;52.298;9.056;2023-07-31T02:39:00;1.02;;;0.30;;
47589;SDS011;33316;52.298;9.056;2023-07-31T02:41:27;0.40;;;0.30;;
47589;SDS011;33316;52.298;9.056;2023-07-31T02:43:54;0.52;;;0.20;;
47589;SDS011;33316;52.298;9.056;2023-07-31T02:46:21;0.30;;;0.30;;
47589;SDS011;33316;52.298;9.056;2023-07-31T02:48:49;0.32;;;0.30;;
47589;SDS011;33316;52.298;9.056;2023-07-31T02:51:17;1.08;;;0.52;;
47589;SDS011;33316;52.298;9.056;2023-07-31T02:53:46;0.50;;;0.40;;
47589;SDS011;33316;52.298;9.056;2023-07-31T02:56:13;0.93;;;0.40;;
47589;SDS011;33316;52.298;9.056;2023-07-31T02:58:40;0.52;;;0.40;;
47589;SDS011;33316;52.298;9.056;2023-07-31T03:01:07;0.70;;;0.40;;
47589;SDS011;33316;52.298;9.056;2023-07-31T03:03:34;0.60;;;0.40;;
47589;SDS011;33316;52.298;9.056;2023-07-31T03:06:01;1.00;;;0.40;;
47589;SDS011;33316;52.298;9.056;2023-07-31T03:08:29;0.63;;;0.40;;
47589;SDS011;33316;52.298;9.056;2023-07-31T03:10:56;0.63;;;0.40;;
47589;SDS011;33316;52.298;9.056;2023-07-31T03:13:23;0.95;;;0.40;;
47589;SDS011;33316;52.298;9.056;2023-07-31T03:15:50;1.45;;;0.55;;
47589;SDS011;33316;52.298;9.056;2023-07-31T03:18:17;0.75;;;0.30;;
47589;SDS011;33316;52.298;9.056;2023-07-31T03:20:44;0.55;;;0.40;;
47589;SDS011;33316;52.298;9.056;2023-07-31T03:23:11;1.02;;;0.40;;
47589;SDS011;33316;52.298;9.056;2023-07-31T03:25:39;0.93;;;0.38;;
47589;SDS011;33316;52.298;9.056;2023-07-31T03:28:08;0.80;;;0.40;;
47589;SDS011;33316;52.298;9.056;2023-07-31T03:30:36;0.85;;;0.40;;
47589;SDS011;33316;52.298;9.056;2023-07-31T03:33:03;1.40;;;0.50;;
47589;SDS011;33316;52.298;9.056;2023-07-31T03:35:30;0.77;;;0.43;;
47589;SDS011;33316;52.298;9.056;2023-07-31T03:37:57;0.77;;;0.40;;
47589;SDS011;33316;52.298;9.056;2023-07-31T03:40:23;0.65;;;0.60;;
47589;SDS011;33316;52.298;9.056;2023-07-31T03:42:52;0.98;;;0.40;;
47589;SDS011;33316;52.298;9.056;2023-07-31T03:45:18;0.32;;;0.30;;
47589;SDS011;33316;52.298;9.056;2023-07-31T03:47:45;0.47;;;0.30;;
47589;SDS011;33316;52.298;9.056;2023-07-31T03:50:12;0.60;;;0.38;;
47589;SDS011;33316;52.298;9.056;2023-07-31T03:52:40;0.60;;;0.40;;
47589;SDS011;33316;52.298;9.056;2023-07-31T03:55:07;0.88;;;0.40;;
47589;SDS011;33316;52.298;9.056;2023-07-31T03:57:35;0.60;;;0.28;;
47589;SDS011;33316;52.298;9.056;2023-07-31T04:00:03;0.40;;;0.30;;
47589;SDS011;33316;52.298;9.056;2023-07-31T04:02:37;1.13;;;0.20;;
47589;SDS011;33316;52.298;9.056;2023-07-31T04:05:04;0.25;;;0.20;;
47589;SDS011;33316;52.298;9.056;2023-07-31T04:07:31;0.10;;;0.10;;
47589;SDS011;33316;52.298;9.056;2023-07-31T04:09:58;0.28;;;0.10;;
47589;SDS011;33316;52.298;9.056;2023-07-31T04:12:25;0.15;;;0.10;;
47589;SDS011;33316;52.298;9.056;2023-07-31T04:14:52;0.20;;;0.20;;
47589;SDS011;33316;52.298;9.056;2023-07-31T04:17:21;0.25;;;0.10;;
47589;SDS011;33316;52.298;9.056;2023-07-31T04:19:47;0.70;;;0.20;;
47589;SDS011;33316;52.298;9.056;2023-07-31T04:22:14;0.25;;;0.15;;
47589;SDS011;33316;52.298;9.056;2023-07-31T04:24:41;0.52;;;0.20;;
47589;SDS011;33316;52.298;9.056;2023-07-31T04:27:08;0.10;;;0.00;;
47589;SDS011;33316;52.298;9.056;2023-07-31T04:29:35;0.25;;;0.10;;
47589;SDS011;33316;52.298;9.056;2023-07-31T04:32:02;0.57;;;0.10;;
47589;SDS011;33316;52.298;9.056;2023-07-31T04:34:30;0.10;;;0.10;;
47589;SDS011;33316;52.298;9.056;2023-07-31T04:36:57;0.40;;;0.17;;
47589;SDS011;33316;52.298;9.056;2023-07-31T04:39:23;0.77;;;0.20;;
47589;SDS011;33316;52.298;9.056;2023-07-31T04:41:50;0.40;;;0.20;;
47589;SDS011;33316;52.298;9.056;2023-07-31T04:44:17;0.73;;;0.20;;
47589;SDS011;33316;52.298;9.056;2023-07-31T04:46:44;0.90;;;0.40;;
47589;SDS011;33316;52.298;9.056;2023-07-31T04:49:11;0.60;;;0.40;;
47589;SDS011;33316;52.298;9.056;2023-07-31T04:51:39;1.13;;;0.60;;
47589;SDS011;33316;52.298;9.056;2023-07-31T04:54:06;1.33;;;0.50;;
47589;SDS011;33316;52.298;9.056;2023-07-31T04:56:33;2.00;;;0.95;;
47589;SDS011;33316;52.298;9.056;2023-07-31T04:59:00;1.23;;;0.75;;
47589;SDS011;33316;52.298;9.056;2023-07-31T05:01:26;1.70;;;1.00;;
47589;SDS011;33316;52.298;9.056;2023-07-31T05:03:53;2.92;;;1.15;;
47589;SDS011;33316;52.298;9.056;2023-07-31T05:06:20;2.35;;;1.08;;
47589;SDS011;33316;52.298;9.056;2023-07-31T05:08:48;2.13;;;1.15;;
47589;SDS011;33316;52.298;9.056;2023-07-31T05:11:15;1.75;;;1.10;;
47589;SDS011;33316;52.298;9.056;2023-07-31T05:13:42;3.40;;;1.90;;
47589;SDS011;33316;52.298;9.056;2023-07-31T05:16:09;3.38;;;1.65;;
47589;SDS011;33316;52.298;9.056;2023-07-31T05:18:36;3.22;;;1.50;;
47589;SDS011;33316;52.298;9.056;2023-07-31T05:21:03;2.38;;;1.40;;
47589;SDS011;33316;52.298;9.056;2023-07-31T05:23:29;2.97;;;1.90;;
47589;SDS011;33316;52.298;9.056;2023-07-31T05:26:03;4.53;;;2.10;;
47589;SDS011;33316;52.298;9.056;2023-07-31T05:28:30;4.30;;;2.05;;
47589;SDS011;33316;52.298;9.056;2023-07-31T05:30:58;3.53;;;2.13;;
47589;SDS011;33316;52.298;9.056;2023-07-31T05:33:26;3.30;;;1.83;;
47589;SDS011;33316;52.298;9.056;2023-07-31T05:35:52;4.88;;;2.97;;
47589;SDS011;33316;52.298;9.056;2023-07-31T05:38:19;5.28;;;2.70;;
47589;SDS011;33316;52.298;9.056;2023-07-31T05:40:46;3.63;;;2.20;;
47589;SDS011;33316;52.298;9.056;2023-07-31T05:43:15;3.10;;;2.10;;
47589;SDS011;33316;52.298;9.056;2023-07-31T05:45:42;4.82;;;2.78;;
47589;SDS011;33316;52.298;9.056;2023-07-31T05:48:09;5.93;;;3.10;;
47589;SDS011;33316;52.298;9.056;2023-07-31T05:50:36;5.22;;;2.85;;
47589;SDS011;33316;52.298;9.056;2023-07-31T05:53:04;6.00;;;2.40;;
47589;SDS011;33316;52.298;9.056;2023-07-31T05:55:31;4.55;;;2.85;;
47589;SDS011;33316;52.298;9.056;2023-07-31T05:57:58;4.28;;;2.33;;
47589;SDS011;33316;52.298;9.056;2023-07-31T06:00:26;4.60;;;2.67;;
47589;SDS011;33316;52.298;9.056;2023-07-31T06:02:53;5.03;;;3.00;;
47589;SDS011;33316;52.298;9.056;2023-07-31T06:05:20;5.38;;;2.60;;
47589;SDS011;33316;52.298;9.056;2023-07-31T06:07:47;4.63;;;2.28;;
47589;SDS011;33316;52.298;9.056;2023-07-31T06:10:14;5.65;;;2.78;;
47589;SDS011;33316;52.298;9.056;2023-07-31T06:12:41;5.85;;;3.00;;
47589;SDS011;33316;52.298;9.056;2023-07-31T06:15:08;4.25;;;2.38;;
47589;SDS011;33316;52.298;9.056;2023-07-31T06:17:37;7.22;;;2.85;;
47589;SDS011;33316;52.298;9.056;2023-07-31T06:20:05;7.03;;;2.60;;
47589;SDS011;33316;52.298;9.056;2023-07-31T06:22:33;5.40;;;2.70;;
47589;SDS011;33316;52.298;9.056;2023-07-31T06:24:59;7.18;;;3.53;;
47589;SDS011;33316;52.298;9.056;2023-07-31T06:27:26;7.50;;;2.63;;
47589;SDS011;33316;52.298;9.056;2023-07-31T06:29:53;6.70;;;3.00;;
47589;SDS011;33316;52.298;9.056;2023-07-31T06:32:20;6.60;;;3.10;;
47589;SDS011;33316;52.298;9.056;2023-07-31T06:34:48;5.40;;;3.03;;
47589;SDS011;33316;52.298;9.056;2023-07-31T06:37:15;6.00;;;3.20;;
47589;SDS011;33316;52.298;9.056;2023-07-31T06:39:42;8.00;;;3.05;;
47589;SDS011;33316;52.298;9.056;2023-07-31T06:42:09;6.15;;;2.72;;
47589;SDS011;33316;52.298;9.056;2023-07-31T06:44:36;8.73;;;3.08;;
47589;SDS011;33316;52.298;9.056;2023-07-31T06:47:03;7.13;;;3.30;;
47589;SDS011;33316;52.298;9.056;2023-07-31T06:49:31;6.60;;;3.22;;
47589;SDS011;33316;52.298;9.056;2023-07-31T06:51:59;6.75;;;2.65;;
47589;SDS011;33316;52.298;9.056;2023-07-31T06:54:26;7.05;;;2.70;;
47589;SDS011;33316;52.298;9.056;2023-07-31T06:56:52;8.95;;;2.40;;
47589;SDS011;33316;52.298;9.056;2023-07-31T06:59:19;7.03;;;2.97;;
47589;SDS011;33316;52.298;9.056;2023-07-31T07:01:46;6.53;;;3.05;;
47589;SDS011;33316;52.298;9.056;2023-07-31T07:04:13;5.88;;;2.78;;
47589;SDS011;33316;52.298;9.056;2023-07-31T07:06:40;8.15;;;2.78;;
47589;SDS011;33316;52.298;9.056;2023-07-31T07:09:08;4.32;;;2.20;;
47589;SDS011;33316;52.298;9.056;2023-07-31T07:11:35;5.25;;;2.42;;
47589;SDS011;33316;52.298;9.056;2023-07-31T07:14:02;6.35;;;2.80;;
47589;SDS011;33316;52.298;9.056;2023-07-31T07:16:30;6.85;;;3.03;;
47589;SDS011;33316;52.298;9.056;2023-07-31T07:18:56;6.97;;;3.10;;
47589;SDS011;33316;52.298;9.056;2023-07-31T07:21:23;5.15;;;2.80;;
47589;SDS011;33316;52.298;9.056;2023-07-31T07:23:50;6.32;;;2.70;;
47589;SDS011;33316;52.298;9.056;2023-07-31T07:26:18;4.50;;;2.50;;
47589;SDS011;33316;52.298;9.056;2023-07-31T07:28:45;4.38;;;2.35;;
47589;SDS011;33316;52.298;9.056;2023-07-31T07:31:12;6.30;;;2.88;;
47589;SDS011;33316;52.298;9.056;2023-07-31T07:33:39;5.35;;;2.90;;
47589;SDS011;33316;52.298;9.056;2023-07-31T07:36:06;6.03;;;2.90;;
47589;SDS011;33316;52.298;9.056;2023-07-31T07:38:34;5.47;;;2.17;;
47589;SDS011;33316;52.298;9.056;2023-07-31T07:41:02;5.03;;;2.20;;
47589;SDS011;33316;52.298;9.056;2023-07-31T07:43:30;5.32;;;2.92;;
47589;SDS011;33316;52.298;9.056;2023-07-31T07:45:57;6.18;;;2.72;;
47589;SDS011;33316;52.298;9.056;2023-07-31T07:48:24;5.90;;;2.55;;
47589;SDS011;33316;52.298;9.056;2023-07-31T07:50:51;5.03;;;2.45;;
47589;SDS011;33316;52.298;9.056;2023-07-31T07:53:21;5.80;;;2.53;;
47589;SDS011;33316;52.298;9.056;2023-07-31T07:55:47;5.18;;;2.42;;
47589;SDS011;33316;52.298;9.056;2023-07-31T07:58:14;5.68;;;2.47;;
47589;SDS011;33316;52.298;9.056;2023-07-31T08:00:42;6.28;;;2.60;;
47589;SDS011;33316;52.298;9.056;2023-07-31T08:03:17;5.82;;;2.60;;
47589;SDS011;33316;52.298;9.056;2023-07-31T08:05:44;4.15;;;2.03;;
47589;SDS011;33316;52.298;9.056;2023-07-31T08:08:13;5.28;;;2.00;;
47589;SDS011;33316;52.298;9.056;2023-07-31T08:10:41;5.68;;;2.30;;
47589;SDS011;33316;52.298;9.056;2023-07-31T08:13:09;4.13;;;2.15;;
47589;SDS011;33316;52.298;9.056;2023-07-31T08:15:36;4.35;;;2.30;;
47589;SDS011;33316;52.298;9.056;2023-07-31T08:18:05;5.07;;;2.17;;
47589;SDS011;33316;52.298;9.056;2023-07-31T08:20:32;4.22;;;1.90;;
47589;SDS011;33316;52.298;9.056;2023-07-31T08:22:59;3.50;;;2.10;;
47589;SDS011;33316;52.298;9.056;2023-07-31T08:25:26;3.60;;;1.90;;
47589;SDS011;33316;52.298;9.056;2023-07-31T08:27:53;5.70;;;2.17;;
47589;SDS011;33316;52.298;9.056;2023-07-31T08:30:20;3.95;;;2.28;;
47589;SDS011;33316;52.298;9.056;2023-07-31T08:32:48;5.93;;;2.50;;
47589;SDS011;33316;52.298;9.056;2023-07-31T08:35:16;4.38;;;2.13;;
47589;SDS011;33316;52.298;9.056;2023-07-31T08:37:43;5.13;;;1.95;;
47589;SDS011;33316;52.298;9.056;2023-07-31T08:40:11;4.55;;;2.33;;
47589;SDS011;33316;52.298;9.056;2023-07-31T08:42:45;3.55;;;1.92;;
47589;SDS011;33316;52.298;9.056;2023-07-31T08:45:13;3.00;;;1.65;;
47589;SDS011;33316;52.298;9.056;2023-07-31T08:47:42;4.40;;;2.00;;
47589;SDS011;33316;52.298;9.056;2023-07-31T08:50:10;2.72;;;1.88;;
47589;SDS011;33316;52.298;9.056;2023-07-31T08:52:40;4.75;;;2.00;;
47589;SDS011;33316;52.298;9.056;2023-07-31T08:55:07;2.15;;;1.52;;
47589;SDS011;33316;52.298;9.056;2023-07-31T08:57:35;3.53;;;1.80;;
47589;SDS011;33316;52.298;9.056;2023-07-31T09:00:04;4.43;;;2.25;;
47589;SDS011;33316;52.298;9.056;2023-07-31T09:02:34;2.75;;;1.70;;
47589;SDS011;33316;52.298;9.056;2023-07-31T09:05:06;3.15;;;1.85;;
47589;SDS011;33316;52.298;9.056;2023-07-31T09:07:34;4.28;;;1.35;;
47589;SDS011;33316;52.298;9.056;2023-07-31T09:10:03;3.35;;;1.45;;
47589;SDS011;33316;52.298;9.056;2023-07-31T09:12:30;4.70;;;1.38;;
47589;SDS011;33316;52.298;9.056;2023-07-31T09:14:58;2.33;;;1.23;;
47589;SDS011;33316;52.298;9.056;2023-07-31T09:17:28;2.72;;;1.40;;
47589;SDS011;33316;52.298;9.056;2023-07-31T09:19:56;3.22;;;1.25;;
47589;SDS011;33316;52.298;9.056;2023-07-31T09:22:30;2.45;;;0.98;;
47589;SDS011;33316;52.298;9.056;2023-07-31T09:25:05;1.73;;;1.15;;
47589;SDS011;33316;52.298;9.056;2023-07-31T09:27:45;2.78;;;1.35;;
47589;SDS011;33316;52.298;9.056;2023-07-31T09:30:13;1.80;;;1.23;;
47589;SDS011;33316;52.298;9.056;2023-07-31T09:32:40;2.25;;;1.40;;
47589;SDS011;33316;52.298;9.056;2023-07-31T09:35:13;1.92;;;1.27;;
47589;SDS011;33316;52.298;9.056;2023-07-31T09:37:47;1.38;;;0.88;;
47589;SDS011;33316;52.298;9.056;2023-07-31T09:40:25;2.25;;;0.90;;
47589;SDS011;33316;52.298;9.056;2023-07-31T09:42:54;1.55;;;1.20;;
47589;SDS011;33316;52.298;9.056;2023-07-31T09:45:23;1.55;;;0.95;;
47589;SDS011;33316;52.298;9.056;2023-07-31T09:47:50;1.63;;;1.00;;
47589;SDS011;33316;52.298;9.056;2023-07-31T09:50:17;2.35;;;1.00;;
47589;SDS011;33316;52.298;9.056;2023-07-31T09:52:45;1.52;;;0.80;;
47589;SDS011;33316;52.298;9.056;2023-07-31T09:55:12;0.93;;;0.80;;
47589;SDS011;33316;52.298;9.056;2023-07-31T09:57:41;1.10;;;0.75;;
47589;SDS011;33316;52.298;9.056;2023-07-31T10:00:10;1.80;;;0.82;;
47589;SDS011;33316;52.298;9.056;2023-07-31T10:02:38;1.35;;;0.90;;
47589;SDS011;33316;52.298;9.056;2023-07-31T10:05:06;1.83;;;0.88;;
47589;SDS011;33316;52.298;9.056;2023-07-31T10:07:37;3.70;;;0.90;;
47589;SDS011;33316;52.298;9.056;2023-07-31T10:10:06;2.28;;;1.15;;
47589;SDS011;33316;52.298;9.056;2023-07-31T10:12:34;2.45;;;1.23;;
47589;SDS011;33316;52.298;9.056;2023-07-31T10:15:04;1.60;;;1.17;;
47589;SDS011;33316;52.298;9.056;2023-07-31T10:17:35;1.50;;;0.90;;
47589;SDS011;33316;52.298;9.056;2023-07-31T10:20:02;0.88;;;0.70;;
47589;SDS011;33316;52.298;9.056;2023-07-31T10:22:31;1.25;;;0.90;;
47589;SDS011;33316;52.298;9.056;2023-07-31T10:24:59;1.40;;;0.98;;
47589;SDS011;33316;52.298;9.056;2023-07-31T10:27:26;1.40;;;0.93;;
47589;SDS011;33316;52.298;9.056;2023-07-31T10:29:54;1.00;;;0.90;;
47589;SDS011;33316;52.298;9.056;2023-07-31T10:32:25;1.30;;;0.87;;
47589;SDS011;33316;52.298;9.056;2023-07-31T10:34:53;0.90;;;0.70;;
47589;SDS011;33316;52.298;9.056;2023-07-31T10:37:22;1.50;;;0.68;;
47589;SDS011;33316;52.298;9.056;2023-07-31T10:39:57;1.85;;;0.85;;
47589;SDS011;33316;52.298;9.056;2023-07-31T10:42:29;1.58;;;0.85;;
47589;SDS011;33316;52.298;9.056;2023-07-31T10:44:58;1.25;;;0.70;;
47589;SDS011;33316;52.298;9.056;2023-07-31T10:47:28;1.85;;;0.85;;
47589;SDS011;33316;52.298;9.056;2023-07-31T10:50:10;1.30;;;0.80;;
47589;SDS011;33316;52.298;9.056;2023-07-31T10:52:38;1.33;;;1.00;;
47589;SDS011;33316;52.298;9.056;2023-07-31T10:58:04;2.60;;;0.88;;
47589;SDS011;33316;52.298;9.056;2023-07-31T11:00:32;1.23;;;0.80;;
47589;SDS011;33316;52.298;9.056;2023-07-31T11:03:02;0.60;;;0.43;;
47589;SDS011;33316;52.298;9.056;2023-07-31T11:05:46;0.57;;;0.50;;
47589;SDS011;33316;52.298;9.056;2023-07-31T11:08:19;0.60;;;0.40;;
47589;SDS011;33316;52.298;9.056;2023-07-31T11:10:48;0.80;;;0.60;;
47589;SDS011;33316;52.298;9.056;2023-07-31T11:13:16;0.95;;;0.50;;
47589;SDS011;33316;52.298;9.056;2023-07-31T11:15:43;1.23;;;0.50;;
47589;SDS011;33316;52.298;9.056;2023-07-31T11:18:12;0.70;;;0.40;;
47589;SDS011;33316;52.298;9.056;2023-07-31T11:20:40;0.40;;;0.40;;
47589;SDS011;33316;52.298;9.056;2023-07-31T11:23:08;1.70;;;0.55;;
47589;SDS011;33316;52.298;9.056;2023-07-31T11:25:35;0.70;;;0.55;;
47589;SDS011;33316;52.298;9.056;2023-07-31T11:28:10;2.35;;;0.88;;
47589;SDS011;33316;52.298;9.056;2023-07-31T11:30:38;0.93;;;0.60;;
47589;SDS011;33316;52.298;9.056;2023-07-31T11:33:07;0.82;;;0.50;;
47589;SDS011;33316;52.298;9.056;2023-07-31T11:35:40;0.50;;;0.25;;
47589;SDS011;33316;52.298;9.056;2023-07-31T11:38:10;0.43;;;0.28;;
47589;SDS011;33316;52.298;9.056;2023-07-31T11:40:40;0.20;;;0.20;;
47589;SDS011;33316;52.298;9.056;2023-07-31T11:43:08;1.00;;;0.30;;
47589;SDS011;33316;52.298;9.056;2023-07-31T11:45:36;0.50;;;0.40;;
47589;SDS011;33316;52.298;9.056;2023-07-31T11:48:05;0.50;;;0.30;;
47589;SDS011;33316;52.298;9.056;2023-07-31T11:50:33;0.25;;;0.20;;
47589;SDS011;33316;52.298;9.056;2023-07-31T11:53:03;1.23;;;0.50;;
47589;SDS011;33316;52.298;9.056;2023-07-31T11:55:34;0.38;;;0.30;;
47589;SDS011;33316;52.298;9.056;2023-07-31T11:58:04;0.80;;;0.50;;
47589;SDS011;33316;52.298;9.056;2023-07-31T12:00:33;0.47;;;0.30;;
47589;SDS011;33316;52.298;9.056;2023-07-31T12:03:00;0.20;;;0.13;;
47589;SDS011;33316;52.298;9.056;2023-07-31T12:05:28;0.30;;;0.30;;
47589;SDS011;33316;52.298;9.056;2023-07-31T12:07:56;0.98;;;0.30;;
47589;SDS011;33316;52.298;9.056;2023-07-31T12:10:27;0.20;;;0.15;;
47589;SDS011;33316;52.298;9.056;2023-07-31T12:12:56;0.40;;;0.30;;
47589;SDS011;33316;52.298;9.056;2023-07-31T12:15:28;0.30;;;0.30;;
47589;SDS011;33316;52.298;9.056;2023-07-31T12:18:00;0.43;;;0.28;;
47589;SDS011;33316;52.298;9.056;2023-07-31T12:20:30;0.32;;;0.20;;
47589;SDS011;33316;52.298;9.056;2023-07-31T12:22:59;0.20;;;0.20;;
47589;SDS011;33316;52.298;9.056;2023-07-31T12:25:32;0.50;;;0.40;;
47589;SDS011;33316;52.298;9.056;2023-07-31T12:28:04;0.77;;;0.40;;
47589;SDS011;33316;52.298;9.056;2023-07-31T12:30:36;0.30;;;0.20;;
47589;SDS011;33316;52.298;9.056;2023-07-31T12:33:04;0.38;;;0.30;;
47589;SDS011;33316;52.298;9.056;2023-07-31T12:35:35;0.63;;;0.30;;
47589;SDS011;33316;52.298;9.056;2023-07-31T12:38:08;0.30;;;0.20;;
47589;SDS011;33316;52.298;9.056;2023-07-31T12:40:36;0.60;;;0.30;;
47589;SDS011;33316;52.298;9.056;2023-07-31T12:43:04;1.08;;;0.40;;
47589;SDS011;33316;52.298;9.056;2023-07-31T12:45:31;0.95;;;0.40;;
47589;SDS011;33316;52.298;9.056;2023-07-31T12:47:58;0.70;;;0.40;;
47589;SDS011;33316;52.298;9.056;2023-07-31T12:50:25;1.20;;;0.40;;
47589;SDS011;33316;52.298;9.056;2023-07-31T12:52:52;0.50;;;0.30;;
47589;SDS011;33316;52.298;9.056;2023-07-31T12:55:21;0.57;;;0.28;;
47589;SDS011;33316;52.298;9.056;2023-07-31T12:57:49;0.25;;;0.20;;
47589;SDS011;33316;52.298;9.056;2023-07-31T13:00:16;0.50;;;0.30;;
47589;SDS011;33316;52.298;9.056;2023-07-31T13:02:43;0.40;;;0.30;;
47589;SDS011;33316;52.298;9.056;2023-07-31T13:05:10;1.98;;;0.82;;
47589;SDS011;33316;52.298;9.056;2023-07-31T13:07:38;0.88;;;0.50;;
47589;SDS011;33316;52.298;9.056;2023-07-31T13:10:05;0.52;;;0.30;;
47589;SDS011;33316;52.298;9.056;2023-07-31T13:12:34;0.52;;;0.28;;
47589;SDS011;33316;52.298;9.056;2023-07-31T13:15:01;0.20;;;0.20;;
47589;SDS011;33316;52.298;9.056;2023-07-31T13:17:28;0.55;;;0.30;;
47589;SDS011;33316;52.298;9.056;2023-07-31T13:19:55;0.25;;;0.20;;
47589;SDS011;33316;52.298;9.056;2023-07-31T13:22:22;0.43;;;0.20;;
47589;SDS011;33316;52.298;9.056;2023-07-31T13:24:49;0.60;;;0.20;;
47589;SDS011;33316;52.298;9.056;2023-07-31T13:27:16;0.32;;;0.30;;
47589;SDS011;33316;52.298;9.056;2023-07-31T13:29:46;0.55;;;0.30;;
47589;SDS011;33316;52.298;9.056;2023-07-31T13:32:13;0.30;;;0.20;;
47589;SDS011;33316;52.298;9.056;2023-07-31T13:34:40;0.55;;;0.38;;
47589;SDS011;33316;52.298;9.056;2023-07-31T13:37:07;0.50;;;0.30;;
47589;SDS011;33316;52.298;9.056;2023-07-31T13:39:34;0.47;;;0.30;;
47589;SDS011;33316;52.298;9.056;2023-07-31T13:42:02;0.20;;;0.20;;
47589;SDS011;33316;52.298;9.056;2023-07-31T13:44:31;0.52;;;0.40;;
47589;SDS011;33316;52.298;9.056;2023-07-31T13:47:00;1.08;;;0.50;;
47589;SDS011;33316;52.298;9.056;2023-07-31T13:49:27;1.02;;;0.90;;
47589;SDS011;33316;52.298;9.056;2023-07-31T13:51:54;1.17;;;0.80;;
47589;SDS011;33316;52.298;9.056;2023-07-31T13:54:21;1.45;;;0.88;;
47589;SDS011;33316;52.298;9.056;2023-07-31T13:56:49;0.90;;;0.85;;
47589;SDS011;33316;52.298;9.056;2023-07-31T13:59:16;1.45;;;1.10;;
47589;SDS011;33316;52.298;9.056;2023-07-31T14:01:43;1.67;;;1.25;;
47589;SDS011;33316;52.298;9.056;2023-07-31T14:04:12;1.88;;;1.45;;
47589;SDS011;33316;52.298;9.056;2023-07-31T14:06:38;1.77;;;1.40;;
47589;SDS011;33316;52.298;9.056;2023-07-31T14:09:05;1.85;;;1.45;;
47589;SDS011;33316;52.298;9.056;2023-07-31T14:11:32;1.73;;;1.58;;
47589;SDS011;33316;52.298;9.056;2023-07-31T14:14:00;3.58;;;1.50;;
47589;SDS011;33316;52.298;9.056;2023-07-31T14:16:28;2.20;;;1.48;;
47589;SDS011;33316;52.298;9.056;2023-07-31T14:18:55;1.75;;;1.58;;
47589;SDS011;33316;52.298;9.056;2023-07-31T14:21:25;1.70;;;1.40;;
47589;SDS011;33316;52.298;9.056;2023-07-31T14:23:52;1.92;;;1.58;;
47589;SDS011;33316;52.298;9.056;2023-07-31T14:26:19;3.40;;;2.30;;
47589;SDS011;33316;52.298;9.056;2023-07-31T14:28:46;2.90;;;2.10;;
47589;SDS011;33316;52.298;9.056;2023-07-31T14:31:12;2.47;;;1.75;;
47589;SDS011;33316;52.298;9.056;2023-07-31T14:33:39;2.13;;;1.70;;
47589;SDS011;33316;52.298;9.056;2023-07-31T14:36:08;1.95;;;1.42;;
47589;SDS011;33316;52.298;9.056;2023-07-31T14:38:36;1.77;;;1.38;;
47589;SDS011;33316;52.298;9.056;2023-07-31T14:41:03;1.77;;;1.27;;
47589;SDS011;33316;52.298;9.056;2023-07-31T14:43:30;2.22;;;1.75;;
47589;SDS011;33316;52.298;9.056;2023-07-31T14:45:57;1.88;;;1.50;;
47589;SDS011;33316;52.298;9.056;2023-07-31T14:48:25;2.17;;;1.60;;
47589;SDS011;33316;52.298;9.056;2023-07-31T14:50:52;2.03;;;1.23;;
47589;SDS011;33316;52.298;9.056;2023-07-31T14:53:19;1.98;;;1.40;;
47589;SDS011;33316;52.298;9.056;2023-07-31T14:55:47;2.83;;;1.55;;